Time;durP1;ratioP1;P1;durP2;ratioP2;P2;SDS_P1;SDS_P2;PMS_P1;PMS_P2;Temp;Humidity;BMP_temperature;BMP_pressure;BME280_temperature;BME280_humidity;BME280_pressure;Samples;Min_cycle;Max_cycle;Signal;HPM_P1;HPM_P2
2022/04/09 00:00:18;;;;;;;14.55;6.13;;;15.40;99.90;;;;;;5095476;28;20323;-52
2022/04/09 00:02:44;;;;;;;11.50;4.80;;;15.20;99.90;;;;;;5094694;28;20031;-52
2022/04/09 00:05:13;;;;;;;10.85;4.53;;;15.10;99.90;;;;;;5095157;28;20377;-52
2022/04/09 00:07:39;;;;;;;17.88;8.38;;;15.00;99.90;;;;;;5095023;28;20024;-52
2022/04/09 00:10:07;;;;;;;17.98;8.23;;;14.90;99.90;;;;;;5095004;28;20119;-52
2022/04/09 00:12:33;;;;;;;17.80;7.40;;;14.80;99.90;;;;;;5094835;28;20035;-52
2022/04/09 00:14:59;;;;;;;19.27;6.78;;;14.70;99.90;;;;;;5094840;28;20032;-52
2022/04/09 00:17:26;;;;;;;27.83;9.65;;;14.60;99.90;;;;;;5094820;28;20119;-52
2022/04/09 00:19:52;;;;;;;26.52;8.95;;;14.50;99.90;;;;;;5094881;28;20065;-52
2022/04/09 00:22:19;;;;;;;29.40;8.60;;;14.40;99.90;;;;;;5094652;28;20024;-52
2022/04/09 00:24:45;;;;;;;25.17;9.35;;;14.30;99.90;;;;;;5094906;28;20036;-52
2022/04/09 00:27:13;;;;;;;27.02;8.55;;;14.30;99.90;;;;;;5094834;28;20035;-52
2022/04/09 00:29:39;;;;;;;26.80;9.93;;;14.10;99.90;;;;;;5076617;28;20055;-52
2022/04/09 00:32:06;;;;;;;26.15;9.43;;;14.10;99.90;;;;;;5076578;28;20077;-52
2022/04/09 00:34:32;;;;;;;24.77;8.40;;;14.00;99.90;;;;;;5076473;28;20035;-52
2022/04/09 00:36:58;;;;;;;25.05;9.43;;;13.90;99.90;;;;;;5076678;28;20485;-52
2022/04/09 00:39:24;;;;;;;24.95;10.38;;;13.90;99.90;;;;;;5094572;28;20083;-52
2022/04/09 00:41:50;;;;;;;23.15;9.32;;;13.70;99.90;;;;;;5094844;28;20039;-52
2022/04/09 00:44:17;;;;;;;23.90;9.00;;;13.60;99.90;;;;;;5076470;28;20024;-52
2022/04/09 00:46:44;;;;;;;23.27;8.07;;;13.60;99.90;;;;;;5094528;28;20103;-52
2022/04/09 00:49:11;;;;;;;21.00;7.78;;;13.50;99.90;;;;;;5076723;28;20016;-52
2022/04/09 00:51:41;;;;;;;17.17;6.63;;;13.60;99.90;;;;;;5093277;28;20024;-52
2022/04/09 00:54:10;;;;;;;15.65;5.78;;;13.80;99.90;;;;;;5095680;28;20035;-52
2022/04/09 00:56:38;;;;;;;14.20;4.45;;;13.80;99.90;;;;;;5098960;28;20024;-52
2022/04/09 00:59:06;;;;;;;8.55;2.88;;;13.90;99.90;;;;;;5098639;28;20027;-52
2022/04/09 01:01:37;;;;;;;10.63;3.00;;;14.00;99.90;;;;;;5080549;28;20448;-52
2022/04/09 01:04:12;;;;;;;8.35;2.45;;;14.20;99.90;;;;;;5098610;28;20082;-52
2022/04/09 01:06:39;;;;;;;13.05;3.42;;;14.20;99.90;;;;;;5097381;28;20095;-52
2022/04/09 01:09:06;;;;;;;9.55;2.75;;;14.40;99.90;;;;;;5097349;28;20089;-52
2022/04/09 01:11:34;;;;;;;9.60;2.60;;;14.50;99.90;;;;;;5097155;28;20056;-52
2022/04/09 01:14:01;;;;;;;7.85;2.38;;;14.50;99.90;;;;;;5080082;28;20062;-52
2022/04/09 01:16:29;;;;;;;10.65;3.40;;;14.50;99.90;;;;;;5080050;28;20044;-52
2022/04/09 01:19:00;;;;;;;13.13;3.33;;;14.60;99.90;;;;;;5080230;28;20102;-53
2022/04/09 01:21:28;;;;;;;23.15;6.63;;;14.60;99.90;;;;;;5080128;28;20121;-52
2022/04/09 01:23:59;;;;;;;24.63;7.72;;;14.50;99.90;;;;;;5079973;28;20038;-52
2022/04/09 01:26:26;;;;;;;27.13;10.00;;;14.30;99.90;;;;;;5079897;28;20036;-52
2022/04/09 01:28:53;;;;;;;60.55;17.42;;;14.20;99.90;;;;;;5080015;28;20032;-52
2022/04/09 01:31:19;;;;;;;34.17;12.57;;;14.00;99.90;;;;;;5098208;28;20042;-52
2022/04/09 01:33:45;;;;;;;37.60;14.00;;;13.80;99.90;;;;;;5097959;28;20110;-52
2022/04/09 01:36:11;;;;;;;54.20;17.27;;;13.50;99.90;;;;;;5097975;28;20103;-52
2022/04/09 01:38:37;;;;;;;45.30;14.45;;;13.50;99.90;;;;;;5079869;28;20048;-52
2022/04/09 01:41:04;;;;;;;49.15;15.38;;;13.40;99.90;;;;;;5079707;28;20111;-52
2022/04/09 01:43:38;;;;;;;37.83;13.88;;;13.30;99.90;;;;;;5079596;28;20444;-52
2022/04/09 01:46:04;;;;;;;38.42;13.07;;;13.20;99.90;;;;;;5079772;28;20032;-52
2022/04/09 01:48:30;;;;;;;30.58;12.05;;;13.10;99.90;;;;;;5097672;28;20028;-52
2022/04/09 01:50:56;;;;;;;28.52;11.00;;;13.00;99.90;;;;;;5079421;28;20028;-52
2022/04/09 01:53:22;;;;;;;31.10;12.23;;;12.90;99.90;;;;;;5079553;28;20035;-52
2022/04/09 01:55:49;;;;;;;38.10;14.13;;;12.80;99.90;;;;;;5079420;28;20063;-52
2022/04/09 01:58:15;;;;;;;39.22;13.32;;;12.70;99.90;;;;;;5079405;28;20028;-52
2022/04/09 02:00:43;;;;;;;31.02;11.63;;;12.70;99.90;;;;;;5078918;28;20035;-52
2022/04/09 02:03:09;;;;;;;27.73;11.18;;;12.60;99.90;;;;;;5075670;28;20394;-52
2022/04/09 02:05:35;;;;;;;33.97;11.52;;;12.50;99.90;;;;;;5076930;28;20032;-52
2022/04/09 02:08:02;;;;;;;33.40;10.50;;;12.40;99.90;;;;;;5075921;28;20504;-52
2022/04/09 02:10:30;;;;;;;34.50;12.45;;;12.20;99.90;;;;;;5058908;28;20483;-52
2022/04/09 02:12:58;;;;;;;27.70;10.27;;;12.20;99.90;;;;;;5058781;28;20028;-52
2022/04/09 02:15:25;;;;;;;25.75;10.40;;;12.10;99.90;;;;;;5075590;28;20028;-52
2022/04/09 02:17:51;;;;;;;33.85;12.05;;;12.10;99.90;;;;;;5059096;28;20032;-52
2022/04/09 02:20:17;;;;;;;29.30;10.93;;;12.00;99.90;;;;;;5070843;28;20039;-52
2022/04/09 02:22:44;;;;;;;25.58;10.05;;;11.90;99.90;;;;;;5078715;28;20040;-52
2022/04/09 02:25:20;;;;;;;27.52;10.23;;;11.90;99.90;;;;;;5078882;28;20439;-52
2022/04/09 02:27:46;;;;;;;24.30;10.35;;;11.80;99.90;;;;;;5078692;28;20032;-52
2022/04/09 02:30:16;;;;;;;25.80;9.65;;;11.80;99.90;;;;;;5078825;28;20028;-52
2022/04/09 02:32:51;;;;;;;26.80;11.05;;;11.70;99.90;;;;;;5078583;28;20028;-52
2022/04/09 02:35:23;;;;;;;29.05;11.48;;;11.70;99.90;;;;;;5078628;28;20031;-52
2022/04/09 02:37:50;;;;;;;30.30;12.50;;;11.50;99.90;;;;;;5078770;28;20426;-52
2022/04/09 02:40:16;;;;;;;37.47;12.68;;;11.60;99.90;;;;;;5078401;28;20358;-52
2022/04/09 02:42:43;;;;;;;28.02;12.02;;;11.50;99.90;;;;;;5078601;28;20028;-52
2022/04/09 02:45:11;;;;;;;24.08;9.90;;;11.40;99.90;;;;;;5078624;28;20032;-52
2022/04/09 02:47:38;;;;;;;32.55;13.75;;;11.30;99.90;;;;;;5078370;28;20423;-52
2022/04/09 02:50:09;;;;;;;30.88;11.43;;;11.20;99.90;;;;;;5078570;28;20036;-52
2022/04/09 02:52:36;;;;;;;25.33;10.90;;;11.10;99.90;;;;;;5078346;28;20032;-52
2022/04/09 02:55:05;;;;;;;25.08;9.45;;;11.00;99.90;;;;;;5078291;28;20111;-52
2022/04/09 02:57:34;;;;;;;27.83;10.98;;;10.90;99.90;;;;;;5078292;28;20035;-52
2022/04/09 03:00:02;;;;;;;26.23;10.63;;;11.00;99.90;;;;;;5078016;28;20031;-52
2022/04/09 03:02:28;;;;;;;25.75;10.77;;;11.00;99.90;;;;;;5096106;28;20020;-52
2022/04/09 03:04:55;;;;;;;30.98;10.93;;;10.90;99.90;;;;;;5078241;28;20028;-52
2022/04/09 03:07:23;;;;;;;25.52;10.63;;;10.90;99.90;;;;;;5096114;28;20039;-52
2022/04/09 03:09:50;;;;;;;28.98;9.20;;;10.90;99.90;;;;;;5078071;28;20477;-52
2022/04/09 03:12:16;;;;;;;21.98;9.48;;;10.90;99.90;;;;;;5094722;28;20035;-52
2022/04/09 03:14:45;;;;;;;24.73;9.95;;;10.90;99.90;;;;;;5095979;28;20020;-52
2022/04/09 03:17:12;;;;;;;23.58;9.52;;;10.80;99.90;;;;;;5077006;28;20489;-52
2022/04/09 03:19:38;;;;;;;27.10;9.10;;;10.80;99.90;;;;;;5077846;28;20016;-52
2022/04/09 03:22:04;;;;;;;24.13;8.32;;;10.80;99.90;;;;;;5077602;28;20087;-52
2022/04/09 03:24:31;;;;;;;29.00;8.60;;;10.80;99.90;;;;;;5077673;28;20024;-52
2022/04/09 03:26:57;;;;;;;28.95;9.15;;;10.70;99.90;;;;;;5095976;28;20043;-52
2022/04/09 03:29:24;;;;;;;21.42;9.18;;;10.70;99.90;;;;;;5077424;28;20032;-52
2022/04/09 03:31:50;;;;;;;28.23;9.10;;;10.60;99.90;;;;;;5077684;28;20028;-52
2022/04/09 03:34:16;;;;;;;27.92;9.63;;;10.70;99.90;;;;;;5077551;28;20035;-52
2022/04/09 03:36:43;;;;;;;28.63;10.20;;;10.70;99.90;;;;;;5095603;28;20082;-52
2022/04/09 03:39:10;;;;;;;34.60;10.93;;;10.70;99.90;;;;;;5077407;28;20027;-52
2022/04/09 03:41:37;;;;;;;28.65;9.68;;;10.60;99.90;;;;;;5077410;28;20497;-52
2022/04/09 03:44:05;;;;;;;19.45;7.45;;;10.50;99.90;;;;;;5077190;28;20508;-52
2022/04/09 03:46:43;;;;;;;21.00;7.78;;;10.50;99.90;;;;;;5094138;28;20111;-52
2022/04/09 03:49:15;;;;;;;29.52;9.65;;;10.30;99.90;;;;;;5077116;28;20401;-52
2022/04/09 03:51:42;;;;;;;35.08;12.00;;;10.30;99.90;;;;;;5077140;28;20104;-52
2022/04/09 03:54:10;;;;;;;29.75;9.35;;;10.30;99.90;;;;;;5077068;28;20433;-52
2022/04/09 03:56:37;;;;;;;29.35;10.10;;;10.30;99.90;;;;;;5077196;28;20048;-52
2022/04/09 03:59:04;;;;;;;23.42;9.45;;;10.30;99.90;;;;;;5076879;28;20042;-52
2022/04/09 04:01:30;;;;;;;26.13;10.00;;;10.20;99.90;;;;;;5076987;28;20054;-52
2022/04/09 04:04:01;;;;;;;23.30;10.02;;;10.10;99.90;;;;;;5076970;28;20035;-52
2022/04/09 04:06:29;;;;;;;25.58;11.95;;;10.20;99.90;;;;;;5076946;28;20071;-52
2022/04/09 04:08:58;;;;;;;29.40;13.13;;;10.20;99.90;;;;;;5110800;28;20511;-52
2022/04/09 04:11:24;;;;;;;34.22;16.73;;;10.20;99.90;;;;;;5076786;28;20032;-52
2022/04/09 04:13:51;;;;;;;28.10;14.98;;;10.20;99.90;;;;;;5093457;28;20028;-52
2022/04/09 04:16:20;;;;;;;38.42;17.98;;;10.20;99.90;;;;;;5093648;28;20105;-52
2022/04/09 04:18:46;;;;;;;41.53;17.98;;;10.20;99.90;;;;;;5110480;28;20032;-52
2022/04/09 04:21:14;;;;;;;42.10;18.45;;;10.20;99.90;;;;;;5094719;28;20028;-52
2022/04/09 04:23:43;;;;;;;42.40;17.50;;;10.20;99.90;;;;;;5076548;28;20039;-52
2022/04/09 04:26:15;;;;;;;59.70;19.75;;;10.10;99.90;;;;;;5076616;28;20367;-52
2022/04/09 04:28:42;;;;;;;48.70;18.92;;;10.10;99.90;;;;;;5076488;28;20028;-52
2022/04/09 04:31:08;;;;;;;43.72;17.58;;;10.00;99.90;;;;;;5076700;28;20359;-52
2022/04/09 04:33:36;;;;;;;41.30;17.35;;;10.00;99.90;;;;;;5094542;28;20032;-52
2022/04/09 04:36:04;;;;;;;71.45;37.25;;;10.00;99.90;;;;;;5076509;28;20035;-52
2022/04/09 04:38:34;;;;;;;51.17;21.10;;;10.00;99.90;;;;;;5076439;28;20039;-52
2022/04/09 04:41:02;;;;;;;49.75;19.70;;;10.00;99.90;;;;;;5076483;28;20032;-52
2022/04/09 04:43:29;;;;;;;46.65;17.48;;;10.00;99.90;;;;;;5076372;28;20032;-52
2022/04/09 04:45:55;;;;;;;37.90;17.85;;;10.00;99.90;;;;;;5076468;28;20062;-52
2022/04/09 04:48:22;;;;;;;38.40;16.48;;;9.80;99.90;;;;;;5076379;28;20111;-52
2022/04/09 04:50:49;;;;;;;32.10;15.13;;;9.80;99.90;;;;;;5076416;28;20508;-52
2022/04/09 04:53:15;;;;;;;38.33;14.80;;;9.90;99.90;;;;;;5076452;28;20028;-52
2022/04/09 04:55:50;;;;;;;28.95;13.77;;;10.00;99.90;;;;;;5076396;28;20032;-52
2022/04/09 04:58:19;;;;;;;36.00;13.30;;;10.00;99.90;;;;;;5076221;28;20024;-52
2022/04/09 05:00:56;;;;;;;26.20;10.80;;;10.10;99.90;;;;;;5076456;28;20039;-52
2022/04/09 05:03:22;;;;;;;30.10;12.18;;;10.20;99.90;;;;;;5094282;28;20486;-52
2022/04/09 05:05:56;;;;;;;29.58;10.95;;;10.30;99.90;;;;;;5093239;28;20032;-52
2022/04/09 05:08:22;;;;;;;27.67;11.23;;;10.40;99.90;;;;;;5076429;28;20109;-52
2022/04/09 05:10:48;;;;;;;37.15;13.00;;;10.40;99.90;;;;;;5076177;28;20028;-52
2022/04/09 05:13:17;;;;;;;32.42;11.85;;;10.50;99.90;;;;;;5092901;28;20028;-52
2022/04/09 05:15:43;;;;;;;31.35;10.95;;;10.50;99.90;;;;;;5075910;28;20048;-52
2022/04/09 05:18:10;;;;;;;24.70;11.20;;;10.50;99.90;;;;;;5076262;28;20032;-52
2022/04/09 05:20:37;;;;;;;30.67;12.80;;;10.60;99.90;;;;;;5076031;28;20057;-52
2022/04/09 05:23:08;;;;;;;38.28;14.32;;;10.70;99.90;;;;;;5075954;28;20036;-52
2022/04/09 05:25:34;;;;;;;41.75;15.60;;;10.90;99.90;;;;;;5076106;28;20032;-52
2022/04/09 05:28:10;;;;;;;47.85;20.10;;;11.00;99.90;;;;;;5076071;28;20024;-52
2022/04/09 05:30:43;;;;;;;49.47;17.42;;;11.20;99.90;;;;;;5076121;28;20032;-52
2022/04/09 05:33:09;;;;;;;47.13;18.77;;;11.30;99.90;;;;;;5075799;28;20501;-52
2022/04/09 05:35:36;;;;;;;59.83;19.25;;;11.40;99.90;;;;;;5075956;28;20028;-52
2022/04/09 05:38:04;;;;;;;56.97;18.48;;;11.50;99.90;;;;;;5075967;28;20397;-52
2022/04/09 05:40:33;;;;;;;57.40;19.23;;;11.70;99.90;;;;;;5077202;28;20028;-52
2022/04/09 05:43:07;;;;;;;50.20;17.88;;;11.80;99.90;;;;;;5079825;28;20470;-52
2022/04/09 05:45:34;;;;;;;55.97;19.10;;;12.00;99.90;;;;;;5079393;28;20398;-52
2022/04/09 05:48:00;;;;;;;43.45;18.08;;;12.20;99.90;;;;;;5079528;28;20028;-52
2022/04/09 05:50:52;;;;;;;45.72;19.08;;;12.40;99.90;;;;;;5094566;28;20032;-52
2022/04/09 05:53:20;;;;;;;65.68;23.88;;;12.60;99.90;;;;;;5079178;28;20035;-52
2022/04/09 05:55:48;;;;;;;74.07;25.17;;;12.70;99.90;;;;;;5079483;28;20056;-52
2022/04/09 05:58:15;;;;;;;78.00;26.35;;;12.90;99.90;;;;;;5078991;28;20107;-52
2022/04/09 06:00:43;;;;;;;70.60;24.15;;;13.10;99.90;;;;;;5079350;28;20313;-52
2022/04/09 06:03:23;;;;;;;67.45;24.73;;;13.20;99.90;;;;;;5075754;28;20432;-52
2022/04/09 06:05:50;;;;;;;58.40;21.90;;;13.30;99.90;;;;;;5075654;28;20033;-52
2022/04/09 06:08:25;;;;;;;62.90;22.55;;;13.40;99.90;;;;;;5075814;28;20552;-52
2022/04/09 06:10:55;;;;;;;55.78;23.02;;;13.40;99.90;;;;;;5058981;28;20043;-52
2022/04/09 06:13:22;;;;;;;51.88;20.95;;;13.50;99.90;;;;;;5058861;28;20127;-52
2022/04/09 06:15:48;;;;;;;59.75;20.35;;;13.60;99.90;;;;;;5075406;28;20060;-52
2022/04/09 06:18:18;;;;;;;48.30;18.98;;;13.80;99.90;;;;;;5075672;28;20128;-52
2022/04/09 06:20:45;;;;;;;48.13;18.98;;;13.90;99.90;;;;;;5074636;28;20043;-52
2022/04/09 06:23:14;;;;;;;50.70;18.75;;;14.10;99.90;;;;;;5078790;28;20027;-52
2022/04/09 06:25:40;;;;;;;56.47;19.80;;;14.30;99.90;;;;;;5097038;28;20039;-52
2022/04/09 06:28:08;;;;;;;49.58;19.20;;;14.40;99.90;;;;;;5078862;28;20534;-52
2022/04/09 06:30:37;;;;;;;64.23;23.03;;;14.60;99.90;;;;;;5078843;28;20028;-52
2022/04/09 06:33:12;;;;;;;54.00;20.90;;;14.80;99.90;;;;;;5078657;28;20024;-52
2022/04/09 06:35:40;;;;;;;64.25;23.02;;;15.20;99.90;;;;;;5095365;28;20035;-52
2022/04/09 06:38:09;;;;;;;70.18;22.83;;;15.40;99.90;;;;;;5078747;28;20093;-52
2022/04/09 06:40:35;;;;;;;76.97;23.40;;;15.70;99.90;;;;;;5078386;28;20047;-52
2022/04/09 06:43:02;;;;;;;54.70;20.85;;;15.90;99.90;;;;;;5078342;28;20024;-52
2022/04/09 06:45:48;;;;;;;69.28;22.50;;;16.30;99.90;;;;;;5096614;28;20081;-53
2022/04/09 06:48:33;;;;;;;34.03;14.20;;;16.60;99.90;;;;;;5096501;28;20031;-52
2022/04/09 06:51:18;;;;;;;29.63;11.88;;;16.90;99.90;;;;;;5095251;28;20074;-53
2022/04/09 06:53:45;;;;;;;22.88;8.38;;;17.40;99.90;;;;;;5077827;28;20027;-53
2022/04/09 06:56:11;;;;;;;19.48;7.13;;;17.90;97.00;;;;;;5078352;28;20102;-53
2022/04/09 06:58:37;;;;;;;16.92;8.40;;;18.10;95.40;;;;;;5077992;28;20031;-53
2022/04/09 07:01:03;;;;;;;10.23;2.58;;;18.40;93.50;;;;;;5078363;28;20059;-53
2022/04/09 07:03:34;;;;;;;15.27;3.00;;;18.60;92.60;;;;;;5078050;28;20119;-53
2022/04/09 07:06:00;;;;;;;10.38;2.33;;;18.70;83.70;;;;;;5096237;28;20493;-53
2022/04/09 07:08:26;;;;;;;6.30;1.80;;;18.90;82.90;;;;;;5096222;28;20035;-53
2022/04/09 07:10:52;;;;;;;20.23;3.85;;;19.10;77.10;;;;;;5096026;28;20093;-53
2022/04/09 07:13:18;;;;;;;9.60;2.50;;;19.30;84.60;;;;;;5095856;28;20032;-53
2022/04/09 07:15:44;;;;;;;15.43;2.97;;;19.40;76.00;;;;;;5096081;28;20043;-53
2022/04/09 07:18:10;;;;;;;9.65;2.47;;;19.70;82.60;;;;;;5096048;28;20028;-53
2022/04/09 07:20:36;;;;;;;12.35;2.53;;;19.90;70.00;;;;;;5095839;28;20040;-53
2022/04/09 07:23:05;;;;;;;23.10;4.22;;;19.90;67.20;;;;;;5095701;28;20032;-53
2022/04/09 07:25:33;;;;;;;13.68;2.13;;;19.70;70.10;;;;;;5095825;28;20083;-53
2022/04/09 07:27:59;;;;;;;13.73;3.72;;;19.50;67.60;;;;;;5095857;28;20036;-53
2022/04/09 07:30:26;;;;;;;20.00;3.85;;;19.50;71.50;;;;;;5095768;28;20062;-53
2022/04/09 07:32:56;;;;;;;16.25;3.75;;;19.30;70.60;;;;;;5095968;28;20038;-53
2022/04/09 07:35:22;;;;;;;12.27;3.28;;;19.30;79.70;;;;;;5095657;28;20035;-53
2022/04/09 07:37:50;;;;;;;16.00;4.03;;;19.20;72.70;;;;;;5095623;28;20370;-53
2022/04/09 07:40:18;;;;;;;22.55;3.45;;;19.20;75.40;;;;;;5095442;28;20035;-53
2022/04/09 07:42:45;;;;;;;10.45;2.10;;;19.10;76.20;;;;;;5095587;28;20056;-53
2022/04/09 07:45:13;;;;;;;14.20;3.25;;;19.00;71.00;;;;;;5095501;28;20028;-53
2022/04/09 07:47:39;;;;;;;10.40;2.75;;;19.00;80.90;;;;;;5095454;28;20039;-53
2022/04/09 07:50:10;;;;;;;14.68;2.35;;;18.90;75.70;;;;;;5095634;28;20272;-53
2022/04/09 07:52:39;;;;;;;9.73;2.67;;;18.90;78.00;;;;;;5095300;28;20085;-53
2022/04/09 07:55:06;;;;;;;6.78;1.80;;;18.90;80.10;;;;;;5095438;28;20043;-53
2022/04/09 07:57:32;;;;;;;6.88;2.08;;;18.90;74.80;;;;;;5095290;28;20528;-53
2022/04/09 07:59:58;;;;;;;12.48;2.88;;;18.90;75.00;;;;;;5095096;28;20020;-53
2022/04/09 08:02:25;;;;;;;5.55;2.00;;;18.90;81.60;;;;;;5095009;28;20031;-53
2022/04/09 08:04:51;;;;;;;16.42;2.67;;;18.80;75.40;;;;;;5095129;28;20442;-53
2022/04/09 08:07:17;;;;;;;13.23;2.67;;;18.90;75.10;;;;;;5095051;28;20024;-53
2022/04/09 08:09:46;;;;;;;9.80;2.28;;;19.00;76.40;;;;;;5095166;28;20036;-53
2022/04/09 08:12:12;;;;;;;8.65;2.15;;;19.10;70.80;;;;;;5094910;28;20473;-53
2022/04/09 08:14:42;;;;;;;12.10;2.90;;;19.30;77.30;;;;;;5094894;28;20534;-53
2022/04/09 08:17:08;;;;;;;11.07;1.88;;;19.30;69.70;;;;;;5094975;28;20466;-53
2022/04/09 08:19:35;;;;;;;25.10;7.93;;;19.30;67.30;;;;;;5094862;28;20481;-53
2022/04/09 08:22:05;;;;;;;18.40;4.55;;;19.30;71.10;;;;;;5094684;28;20020;-53
2022/04/09 08:24:31;;;;;;;8.18;3.35;;;19.30;70.30;;;;;;5094963;28;20020;-53
2022/04/09 08:26:57;;;;;;;8.05;2.47;;;19.30;70.40;;;;;;5094798;28;20028;-53
2022/04/09 08:29:24;;;;;;;7.78;2.33;;;19.30;67.40;;;;;;5094698;28;20054;-53
2022/04/09 08:31:51;;;;;;;11.88;2.47;;;19.30;69.10;;;;;;5094855;28;20081;-53
2022/04/09 08:34:19;;;;;;;10.73;2.45;;;19.20;67.60;;;;;;5094521;28;20081;-53
2022/04/09 08:36:46;;;;;;;5.28;1.88;;;19.30;69.40;;;;;;5094528;28;20115;-53
2022/04/09 08:39:12;;;;;;;7.88;2.15;;;19.30;65.20;;;;;;5094781;28;20600;-53
2022/04/09 08:41:42;;;;;;;20.88;4.72;;;19.20;65.70;;;;;;5094587;28;20028;-53
2022/04/09 08:44:08;;;;;;;15.07;4.30;;;19.30;78.30;;;;;;5094642;28;20054;-53
2022/04/09 08:46:35;;;;;;;9.02;2.55;;;19.30;68.70;;;;;;5094500;28;20760;-53
2022/04/09 08:49:05;;;;;;;11.13;2.80;;;19.30;68.10;;;;;;5094432;28;20039;-53
2022/04/09 08:51:32;;;;;;;11.15;2.80;;;19.30;72.90;;;;;;5094523;28;20043;-53
2022/04/09 08:54:03;;;;;;;13.52;2.70;;;19.30;66.90;;;;;;5094584;28;20032;-53
2022/04/09 08:56:29;;;;;;;19.50;3.78;;;19.40;68.80;;;;;;5094309;28;20031;-53
2022/04/09 08:58:58;;;;;;;10.82;2.78;;;19.40;70.50;;;;;;5094286;28;20020;-53
2022/04/09 09:01:25;;;;;;;14.65;2.67;;;19.40;67.80;;;;;;5094582;28;20101;-53
2022/04/09 09:03:51;;;;;;;8.88;2.53;;;19.40;64.80;;;;;;5094295;28;20516;-53
2022/04/09 09:06:39;;;;;;;5.03;1.90;;;19.50;69.30;;;;;;5094548;28;20032;-53
2022/04/09 09:09:06;;;;;;;10.55;2.33;;;19.60;62.40;;;;;;5094488;28;20024;-53
2022/04/09 09:11:46;;;;;;;11.73;3.60;;;19.60;59.80;;;;;;5094142;28;20024;-53
2022/04/09 09:14:30;;;;;;;11.83;2.40;;;19.70;60.30;;;;;;5094117;28;20036;-53
2022/04/09 09:17:00;;;;;;;12.35;2.88;;;19.80;60.10;;;;;;5098003;28;20425;-53
2022/04/09 09:19:42;;;;;;;32.07;7.60;;;19.90;63.20;;;;;;5098074;28;20504;-53
2022/04/09 09:22:08;;;;;;;14.68;3.78;;;20.00;58.90;;;;;;5098005;28;20109;-53
2022/04/09 09:24:35;;;;;;;18.85;4.22;;;20.10;58.10;;;;;;5097993;28;20035;-53
2022/04/09 09:27:02;;;;;;;13.30;3.80;;;20.30;58.90;;;;;;5098121;28;20072;-53
2022/04/09 09:29:29;;;;;;;8.23;2.38;;;20.40;61.00;;;;;;5098172;28;20103;-53
2022/04/09 09:31:58;;;;;;;18.45;4.15;;;20.40;58.50;;;;;;5097952;28;20032;-53
2022/04/09 09:34:25;;;;;;;13.55;3.60;;;20.30;60.70;;;;;;5097969;28;20028;-53
2022/04/09 09:36:51;;;;;;;12.40;2.97;;;20.60;62.80;;;;;;5098010;28;20020;-53
2022/04/09 09:39:22;;;;;;;13.68;2.72;;;20.90;57.30;;;;;;5097762;28;20496;-53
2022/04/09 09:41:58;;;;;;;31.45;5.60;;;21.00;53.00;;;;;;5097883;28;20028;-53
2022/04/09 09:44:26;;;;;;;10.18;2.42;;;21.00;53.20;;;;;;5097762;28;20031;-53
2022/04/09 09:46:54;;;;;;;17.92;4.10;;;20.90;51.40;;;;;;5097807;28;20107;-53
2022/04/09 09:49:25;;;;;;;15.02;3.25;;;20.60;51.70;;;;;;5097701;28;20381;-53
2022/04/09 09:52:09;;;;;;;12.45;2.85;;;20.50;53.80;;;;;;5097705;28;20032;-53
2022/04/09 09:55:02;;;;;;;8.70;3.10;;;20.60;54.20;;;;;;5097655;28;20050;-53
2022/04/09 09:57:30;;;;;;;11.75;2.72;;;20.60;55.50;;;;;;5097612;28;20393;-53
2022/04/09 09:59:58;;;;;;;10.73;2.85;;;20.40;52.40;;;;;;5097305;28;20020;-53
2022/04/09 10:02:25;;;;;;;9.13;2.20;;;20.20;53.50;;;;;;5097329;28;20024;-53
2022/04/09 10:04:52;;;;;;;6.90;1.98;;;20.10;53.00;;;;;;5097900;28;20024;-53
2022/04/09 10:07:19;;;;;;;9.63;2.40;;;19.90;55.10;;;;;;5097244;28;20043;-53
2022/04/09 10:09:46;;;;;;;5.95;1.80;;;19.80;55.10;;;;;;5097338;28;20024;-53
2022/04/09 10:12:21;;;;;;;6.30;2.38;;;19.80;56.40;;;;;;5097252;28;20023;-53
2022/04/09 10:15:08;;;;;;;9.77;1.70;;;19.70;56.00;;;;;;5097190;28;20016;-53
2022/04/09 10:17:34;;;;;;;9.63;2.30;;;19.80;56.50;;;;;;5097005;28;20055;-53
2022/04/09 10:20:02;;;;;;;21.15;4.95;;;19.90;55.40;;;;;;5097045;28;20478;-53
2022/04/09 10:22:30;;;;;;;23.63;4.50;;;19.90;55.80;;;;;;5097012;28;20535;-53
2022/04/09 10:24:58;;;;;;;14.60;3.47;;;20.00;63.70;;;;;;5097077;28;20116;-53
2022/04/09 10:27:34;;;;;;;11.68;3.35;;;20.00;58.20;;;;;;5096908;28;20034;-53
2022/04/09 10:30:02;;;;;;;18.90;4.45;;;19.90;56.20;;;;;;5096811;28;20109;-53
2022/04/09 10:32:46;;;;;;;12.85;2.88;;;19.90;61.10;;;;;;5096705;28;20428;-53
2022/04/09 10:35:25;;;;;;;15.60;4.10;;;19.90;57.40;;;;;;5096677;28;20028;-53
2022/04/09 10:38:15;;;;;;;19.85;5.47;;;19.90;59.80;;;;;;5096758;28;20054;-53
2022/04/09 10:40:44;;;;;;;7.75;2.55;;;19.90;58.30;;;;;;5096789;28;20024;-53
2022/04/09 10:43:22;;;;;;;16.58;3.47;;;19.80;57.10;;;;;;5096704;28;20386;-53
2022/04/09 10:46:00;;;;;;;13.98;3.42;;;19.80;56.60;;;;;;5096816;28;20107;-53
2022/04/09 10:48:36;;;;;;;7.50;2.40;;;19.80;60.80;;;;;;5096566;28;20039;-53
2022/04/09 10:51:08;;;;;;;14.27;3.65;;;19.90;55.90;;;;;;5096546;28;20035;-53
2022/04/09 10:53:37;;;;;;;13.32;2.90;;;19.90;59.90;;;;;;5096553;28;20097;-53
2022/04/09 10:56:25;;;;;;;13.23;3.63;;;20.00;56.60;;;;;;5096333;28;20089;-53
2022/04/09 10:59:18;;;;;;;18.08;3.90;;;20.00;56.80;;;;;;5096308;28;20082;-53
2022/04/09 11:01:47;;;;;;;13.52;2.78;;;19.90;59.40;;;;;;5096353;28;20042;-53
2022/04/09 11:04:32;;;;;;;14.10;3.42;;;19.90;53.70;;;;;;5096111;28;20032;-53
2022/04/09 11:07:12;;;;;;;21.83;5.57;;;19.90;58.70;;;;;;5096195;28;20078;-53
2022/04/09 11:09:51;;;;;;;15.25;3.00;;;19.90;61.00;;;;;;5096419;28;20035;-53
2022/04/09 11:12:21;;;;;;;12.23;3.13;;;19.90;54.40;;;;;;5095959;28;20032;-53
2022/04/09 11:14:56;;;;;;;14.55;3.78;;;19.90;57.00;;;;;;5096012;28;20035;-53
2022/04/09 11:17:28;;;;;;;16.80;2.67;;;19.90;59.00;;;;;;5095966;28;20073;-53
2022/04/09 11:19:54;;;;;;;10.10;3.03;;;19.90;58.00;;;;;;5096142;28;20021;-53
2022/04/09 11:22:21;;;;;;;15.55;3.92;;;19.80;55.90;;;;;;5095903;28;20024;-53
2022/04/09 11:24:47;;;;;;;11.02;3.08;;;19.90;58.80;;;;;;5095857;28;20492;-53
2022/04/09 11:27:13;;;;;;;16.58;4.28;;;20.00;57.70;;;;;;5095835;28;20034;-53
2022/04/09 11:29:41;;;;;;;8.20;2.38;;;19.90;59.00;;;;;;5095879;28;20105;-53
2022/04/09 11:32:16;;;;;;;13.93;3.15;;;19.90;56.80;;;;;;5095879;28;20024;-53
2022/04/09 11:34:56;;;;;;;11.75;2.47;;;19.90;57.00;;;;;;5095452;28;20020;-53
2022/04/09 11:37:23;;;;;;;10.50;3.05;;;20.00;56.30;;;;;;5095580;28;20489;-53
2022/04/09 11:39:50;;;;;;;17.70;3.33;;;19.90;55.70;;;;;;5095311;28;20036;-53
2022/04/09 11:42:17;;;;;;;13.00;3.15;;;20.00;57.10;;;;;;5095703;28;20027;-53
2022/04/09 11:44:43;;;;;;;12.85;2.40;;;20.00;55.20;;;;;;5095630;28;20061;-53
2022/04/09 11:47:11;;;;;;;14.05;3.08;;;19.90;55.00;;;;;;5095777;28;20036;-53
2022/04/09 11:49:37;;;;;;;12.70;3.20;;;19.80;57.20;;;;;;5095382;28;20538;-53
2022/04/09 11:52:05;;;;;;;8.13;2.55;;;19.80;58.80;;;;;;5095490;28;20024;-53
2022/04/09 11:54:32;;;;;;;12.90;3.75;;;19.70;55.80;;;;;;5095153;28;20020;-53
2022/04/09 11:57:00;;;;;;;17.25;3.95;;;19.60;57.00;;;;;;5095266;28;20020;-53
2022/04/09 11:59:26;;;;;;;11.27;2.53;;;19.70;61.60;;;;;;5095144;28;20051;-53
2022/04/09 12:01:52;;;;;;;13.23;2.92;;;19.70;56.80;;;;;;5095158;28;20016;-53
2022/04/09 12:04:20;;;;;;;20.70;5.25;;;19.60;58.10;;;;;;5095079;28;20028;-53
2022/04/09 12:06:46;;;;;;;10.40;3.35;;;19.60;64.70;;;;;;5095152;28;20038;-53
2022/04/09 12:09:13;;;;;;;15.00;3.00;;;19.50;64.40;;;;;;5094939;28;20024;-53
2022/04/09 12:11:52;;;;;;;14.82;3.42;;;19.50;58.90;;;;;;5095087;28;20025;-53
2022/04/09 12:14:20;;;;;;;9.05;2.88;;;19.50;61.20;;;;;;5094766;28;20032;-53
2022/04/09 12:16:49;;;;;;;7.85;2.63;;;19.40;58.30;;;;;;5094791;28;21193;-53
2022/04/09 12:19:15;;;;;;;16.17;4.18;;;19.40;59.90;;;;;;5094878;28;20034;-53
2022/04/09 12:21:41;;;;;;;22.73;5.45;;;19.30;63.50;;;;;;5094871;28;20510;-53
2022/04/09 12:24:12;;;;;;;17.95;5.00;;;19.30;65.00;;;;;;5094652;28;20020;-53
2022/04/09 12:26:43;;;;;;;11.15;2.80;;;19.30;74.00;;;;;;5094828;28;20086;-53
2022/04/09 12:29:22;;;;;;;16.77;4.20;;;19.20;69.00;;;;;;5095043;28;20028;-53
2022/04/09 12:32:12;;;;;;;15.05;3.90;;;19.10;81.00;;;;;;5094699;28;20043;-53
2022/04/09 12:34:52;;;;;;;20.90;6.13;;;19.20;83.90;;;;;;5094664;28;20111;-53
2022/04/09 12:37:18;;;;;;;17.80;5.40;;;19.10;80.20;;;;;;5094535;28;20020;-52
2022/04/09 12:39:44;;;;;;;21.38;6.40;;;19.10;78.10;;;;;;5094641;28;20063;-53
2022/04/09 12:42:11;;;;;;;19.42;5.50;;;18.90;77.90;;;;;;5094554;28;20032;-53
2022/04/09 12:44:37;;;;;;;22.98;5.25;;;18.80;81.20;;;;;;5094827;28;20107;-53